sensor_id;sensor_type;location;lat;lon;timestamp;P1;durP1;ratioP1;P2;durP2;ratioP2
6089;SDS011;3073;42.660;23.316;2023-04-24T00:01:39;9.20;;;5.77;;
6089;SDS011;3073;42.660;23.316;2023-04-24T00:04:07;11.73;;;6.43;;
6089;SDS011;3073;42.660;23.316;2023-04-24T00:06:36;8.00;;;5.20;;
6089;SDS011;3073;42.660;23.316;2023-04-24T00:09:03;8.50;;;5.40;;
6089;SDS011;3073;42.660;23.316;2023-04-24T00:11:34;8.00;;;6.27;;
6089;SDS011;3073;42.660;23.316;2023-04-24T00:14:02;12.43;;;6.00;;
6089;SDS011;3073;42.660;23.316;2023-04-24T00:16:31;8.50;;;5.57;;
6089;SDS011;3073;42.660;23.316;2023-04-24T00:18:57;9.50;;;5.57;;
6089;SDS011;3073;42.660;23.316;2023-04-24T00:21:25;9.50;;;6.37;;
6089;SDS011;3073;42.660;23.316;2023-04-24T00:23:52;12.77;;;5.83;;
6089;SDS011;3073;42.660;23.316;2023-04-24T00:26:20;9.40;;;6.10;;
6089;SDS011;3073;42.660;23.316;2023-04-24T00:28:46;7.77;;;5.50;;
6089;SDS011;3073;42.660;23.316;2023-04-24T00:31:13;8.03;;;5.23;;
6089;SDS011;3073;42.660;23.316;2023-04-24T00:33:42;10.30;;;6.37;;
6089;SDS011;3073;42.660;23.316;2023-04-24T00:36:08;9.57;;;5.50;;
6089;SDS011;3073;42.660;23.316;2023-04-24T00:38:35;10.60;;;6.27;;
6089;SDS011;3073;42.660;23.316;2023-04-24T00:41:02;6.80;;;5.40;;
6089;SDS011;3073;42.660;23.316;2023-04-24T00:43:56;7.30;;;5.53;;
6089;SDS011;3073;42.660;23.316;2023-04-24T00:46:40;7.40;;;5.50;;
6089;SDS011;3073;42.660;23.316;2023-04-24T00:49:09;8.07;;;5.17;;
6089;SDS011;3073;42.660;23.316;2023-04-24T00:51:38;9.20;;;4.90;;
6089;SDS011;3073;42.660;23.316;2023-04-24T00:54:05;7.43;;;4.03;;
6089;SDS011;3073;42.660;23.316;2023-04-24T00:56:32;8.83;;;4.40;;
6089;SDS011;3073;42.660;23.316;2023-04-24T00:58:59;8.63;;;5.33;;
6089;SDS011;3073;42.660;23.316;2023-04-24T01:01:26;7.23;;;4.97;;
6089;SDS011;3073;42.660;23.316;2023-04-24T01:03:53;13.00;;;5.60;;
6089;SDS011;3073;42.660;23.316;2023-04-24T01:06:22;10.10;;;6.07;;
6089;SDS011;3073;42.660;23.316;2023-04-24T01:08:53;9.83;;;5.53;;
6089;SDS011;3073;42.660;23.316;2023-04-24T01:11:20;9.07;;;4.73;;
6089;SDS011;3073;42.660;23.316;2023-04-24T01:13:47;7.43;;;5.03;;
6089;SDS011;3073;42.660;23.316;2023-04-24T01:16:14;8.50;;;5.53;;
6089;SDS011;3073;42.660;23.316;2023-04-24T01:18:42;8.17;;;4.80;;
6089;SDS011;3073;42.660;23.316;2023-04-24T01:21:09;5.00;;;3.50;;
6089;SDS011;3073;42.660;23.316;2023-04-24T01:23:42;8.43;;;4.90;;
6089;SDS011;3073;42.660;23.316;2023-04-24T01:26:09;5.60;;;3.60;;
6089;SDS011;3073;42.660;23.316;2023-04-24T01:28:37;5.60;;;4.20;;
6089;SDS011;3073;42.660;23.316;2023-04-24T01:31:04;7.17;;;3.93;;
6089;SDS011;3073;42.660;23.316;2023-04-24T01:33:31;6.50;;;4.27;;
6089;SDS011;3073;42.660;23.316;2023-04-24T01:35:58;9.93;;;4.00;;
6089;SDS011;3073;42.660;23.316;2023-04-24T01:38:26;6.00;;;3.90;;
6089;SDS011;3073;42.660;23.316;2023-04-24T01:40:54;6.93;;;4.27;;
6089;SDS011;3073;42.660;23.316;2023-04-24T01:43:21;5.50;;;3.43;;
6089;SDS011;3073;42.660;23.316;2023-04-24T01:45:48;5.30;;;4.07;;
6089;SDS011;3073;42.660;23.316;2023-04-24T01:48:15;5.07;;;4.13;;
6089;SDS011;3073;42.660;23.316;2023-04-24T01:50:42;9.07;;;3.83;;
6089;SDS011;3073;42.660;23.316;2023-04-24T01:53:09;4.90;;;3.57;;
6089;SDS011;3073;42.660;23.316;2023-04-24T01:55:36;6.40;;;3.30;;
6089;SDS011;3073;42.660;23.316;2023-04-24T01:58:04;5.90;;;4.00;;
6089;SDS011;3073;42.660;23.316;2023-04-24T02:00:32;7.47;;;4.40;;
6089;SDS011;3073;42.660;23.316;2023-04-24T02:02:59;8.43;;;4.40;;
6089;SDS011;3073;42.660;23.316;2023-04-24T02:05:27;5.33;;;3.70;;
6089;SDS011;3073;42.660;23.316;2023-04-24T02:07:54;9.13;;;4.60;;
6089;SDS011;3073;42.660;23.316;2023-04-24T02:10:21;6.80;;;4.23;;
6089;SDS011;3073;42.660;23.316;2023-04-24T02:12:48;11.80;;;5.10;;
6089;SDS011;3073;42.660;23.316;2023-04-24T02:15:16;7.17;;;5.30;;
6089;SDS011;3073;42.660;23.316;2023-04-24T02:17:43;5.50;;;4.17;;
6089;SDS011;3073;42.660;23.316;2023-04-24T02:20:10;8.30;;;4.50;;
6089;SDS011;3073;42.660;23.316;2023-04-24T02:22:37;6.23;;;4.67;;
6089;SDS011;3073;42.660;23.316;2023-04-24T02:25:04;7.30;;;5.13;;
6089;SDS011;3073;42.660;23.316;2023-04-24T02:27:31;7.77;;;5.20;;
6089;SDS011;3073;42.660;23.316;2023-04-24T02:29:58;4.23;;;3.33;;
6089;SDS011;3073;42.660;23.316;2023-04-24T02:32:27;3.93;;;3.43;;
6089;SDS011;3073;42.660;23.316;2023-04-24T02:34:53;9.43;;;4.30;;
6089;SDS011;3073;42.660;23.316;2023-04-24T02:37:20;8.17;;;4.53;;
6089;SDS011;3073;42.660;23.316;2023-04-24T02:39:47;4.27;;;3.77;;
6089;SDS011;3073;42.660;23.316;2023-04-24T02:42:14;5.67;;;3.90;;
6089;SDS011;3073;42.660;23.316;2023-04-24T02:44:41;9.00;;;3.87;;
6089;SDS011;3073;42.660;23.316;2023-04-24T02:47:07;8.17;;;3.97;;
6089;SDS011;3073;42.660;23.316;2023-04-24T02:49:36;4.53;;;3.60;;
6089;SDS011;3073;42.660;23.316;2023-04-24T02:52:02;5.60;;;3.60;;
6089;SDS011;3073;42.660;23.316;2023-04-24T02:54:29;7.87;;;3.67;;
6089;SDS011;3073;42.660;23.316;2023-04-24T02:56:56;7.03;;;3.70;;
6089;SDS011;3073;42.660;23.316;2023-04-24T02:59:23;5.20;;;3.83;;
6089;SDS011;3073;42.660;23.316;2023-04-24T03:01:52;5.83;;;4.40;;
6089;SDS011;3073;42.660;23.316;2023-04-24T03:04:19;6.70;;;4.47;;
6089;SDS011;3073;42.660;23.316;2023-04-24T03:06:48;6.63;;;4.50;;
6089;SDS011;3073;42.660;23.316;2023-04-24T03:09:16;7.73;;;5.27;;
6089;SDS011;3073;42.660;23.316;2023-04-24T03:11:43;8.83;;;5.50;;
6089;SDS011;3073;42.660;23.316;2023-04-24T03:14:10;10.50;;;6.47;;
6089;SDS011;3073;42.660;23.316;2023-04-24T03:16:37;9.13;;;6.13;;
6089;SDS011;3073;42.660;23.316;2023-04-24T03:19:04;8.13;;;5.70;;
6089;SDS011;3073;42.660;23.316;2023-04-24T03:21:30;7.37;;;5.13;;
6089;SDS011;3073;42.660;23.316;2023-04-24T03:23:58;10.87;;;6.73;;
6089;SDS011;3073;42.660;23.316;2023-04-24T03:26:25;8.57;;;5.93;;
6089;SDS011;3073;42.660;23.316;2023-04-24T03:28:52;11.17;;;6.93;;
6089;SDS011;3073;42.660;23.316;2023-04-24T03:31:19;11.77;;;7.33;;
6089;SDS011;3073;42.660;23.316;2023-04-24T03:33:47;9.67;;;6.27;;
6089;SDS011;3073;42.660;23.316;2023-04-24T03:36:14;13.00;;;7.30;;
6089;SDS011;3073;42.660;23.316;2023-04-24T03:38:40;9.57;;;6.60;;
6089;SDS011;3073;42.660;23.316;2023-04-24T03:41:09;10.47;;;6.00;;
6089;SDS011;3073;42.660;23.316;2023-04-24T03:43:35;10.20;;;6.87;;
6089;SDS011;3073;42.660;23.316;2023-04-24T03:46:02;10.70;;;6.10;;
6089;SDS011;3073;42.660;23.316;2023-04-24T03:48:29;8.80;;;5.80;;
6089;SDS011;3073;42.660;23.316;2023-04-24T03:50:56;6.90;;;5.30;;
6089;SDS011;3073;42.660;23.316;2023-04-24T03:53:23;11.10;;;6.93;;
6089;SDS011;3073;42.660;23.316;2023-04-24T03:55:49;10.93;;;5.77;;
6089;SDS011;3073;42.660;23.316;2023-04-24T03:58:18;8.40;;;6.20;;
6089;SDS011;3073;42.660;23.316;2023-04-24T04:00:44;11.10;;;6.40;;
6089;SDS011;3073;42.660;23.316;2023-04-24T04:03:13;11.40;;;5.70;;
6089;SDS011;3073;42.660;23.316;2023-04-24T04:05:40;8.33;;;5.77;;
6089;SDS011;3073;42.660;23.316;2023-04-24T04:08:07;12.73;;;6.80;;
6089;SDS011;3073;42.660;23.316;2023-04-24T04:10:34;11.23;;;6.50;;
6089;SDS011;3073;42.660;23.316;2023-04-24T04:13:00;9.67;;;5.83;;
6089;SDS011;3073;42.660;23.316;2023-04-24T04:15:29;11.23;;;5.97;;
6089;SDS011;3073;42.660;23.316;2023-04-24T04:17:56;8.60;;;6.63;;
6089;SDS011;3073;42.660;23.316;2023-04-24T04:20:24;7.83;;;5.83;;
6089;SDS011;3073;42.660;23.316;2023-04-24T04:22:52;6.63;;;5.23;;
6089;SDS011;3073;42.660;23.316;2023-04-24T04:25:19;12.10;;;6.60;;
6089;SDS011;3073;42.660;23.316;2023-04-24T04:27:46;9.80;;;5.90;;
6089;SDS011;3073;42.660;23.316;2023-04-24T04:30:14;11.40;;;6.50;;
6089;SDS011;3073;42.660;23.316;2023-04-24T04:32:42;7.60;;;5.60;;
6089;SDS011;3073;42.660;23.316;2023-04-24T04:35:09;12.50;;;6.10;;
6089;SDS011;3073;42.660;23.316;2023-04-24T04:37:54;17.73;;;9.83;;
6089;SDS011;3073;42.660;23.316;2023-04-24T04:40:38;9.30;;;5.97;;
6089;SDS011;3073;42.660;23.316;2023-04-24T04:43:05;8.60;;;5.17;;
6089;SDS011;3073;42.660;23.316;2023-04-24T04:45:32;6.70;;;4.83;;
6089;SDS011;3073;42.660;23.316;2023-04-24T04:48:00;7.77;;;5.03;;
6089;SDS011;3073;42.660;23.316;2023-04-24T04:50:28;8.80;;;5.13;;
6089;SDS011;3073;42.660;23.316;2023-04-24T04:52:55;10.30;;;6.50;;
6089;SDS011;3073;42.660;23.316;2023-04-24T04:55:22;8.53;;;5.67;;
6089;SDS011;3073;42.660;23.316;2023-04-24T04:57:49;7.33;;;5.67;;
6089;SDS011;3073;42.660;23.316;2023-04-24T05:00:17;6.53;;;4.70;;
6089;SDS011;3073;42.660;23.316;2023-04-24T05:02:44;11.93;;;5.07;;
6089;SDS011;3073;42.660;23.316;2023-04-24T05:05:12;6.23;;;4.57;;
6089;SDS011;3073;42.660;23.316;2023-04-24T05:07:39;6.67;;;5.03;;
6089;SDS011;3073;42.660;23.316;2023-04-24T05:10:06;6.47;;;4.30;;
6089;SDS011;3073;42.660;23.316;2023-04-24T05:12:33;7.63;;;4.95;;
6089;SDS011;3073;42.660;23.316;2023-04-24T05:15:00;4.93;;;3.57;;
6089;SDS011;3073;42.660;23.316;2023-04-24T05:17:27;6.50;;;4.03;;
6089;SDS011;3073;42.660;23.316;2023-04-24T05:19:54;6.50;;;3.77;;
6089;SDS011;3073;42.660;23.316;2023-04-24T05:22:23;5.00;;;3.23;;
6089;SDS011;3073;42.660;23.316;2023-04-24T05:24:53;5.37;;;3.10;;
6089;SDS011;3073;42.660;23.316;2023-04-24T05:27:20;4.70;;;3.53;;
6089;SDS011;3073;42.660;23.316;2023-04-24T05:29:47;6.27;;;3.70;;
6089;SDS011;3073;42.660;23.316;2023-04-24T05:32:14;6.77;;;3.57;;
6089;SDS011;3073;42.660;23.316;2023-04-24T05:34:41;4.67;;;3.60;;
6089;SDS011;3073;42.660;23.316;2023-04-24T05:37:08;6.83;;;3.47;;
6089;SDS011;3073;42.660;23.316;2023-04-24T05:39:36;4.73;;;3.53;;
6089;SDS011;3073;42.660;23.316;2023-04-24T05:42:03;4.60;;;3.50;;
6089;SDS011;3073;42.660;23.316;2023-04-24T05:44:30;5.17;;;3.13;;
6089;SDS011;3073;42.660;23.316;2023-04-24T05:46:57;7.60;;;3.23;;
6089;SDS011;3073;42.660;23.316;2023-04-24T05:49:24;5.37;;;3.03;;
6089;SDS011;3073;42.660;23.316;2023-04-24T05:51:51;8.63;;;3.77;;
6089;SDS011;3073;42.660;23.316;2023-04-24T05:54:18;5.97;;;3.53;;
6089;SDS011;3073;42.660;23.316;2023-04-24T05:56:46;12.30;;;3.80;;
6089;SDS011;3073;42.660;23.316;2023-04-24T05:59:12;6.63;;;3.83;;
6089;SDS011;3073;42.660;23.316;2023-04-24T06:01:39;5.17;;;4.00;;
6089;SDS011;3073;42.660;23.316;2023-04-24T06:04:06;6.73;;;4.20;;
6089;SDS011;3073;42.660;23.316;2023-04-24T06:06:33;6.70;;;3.70;;
6089;SDS011;3073;42.660;23.316;2023-04-24T06:09:01;4.87;;;3.73;;
6089;SDS011;3073;42.660;23.316;2023-04-24T06:11:28;4.63;;;3.60;;
6089;SDS011;3073;42.660;23.316;2023-04-24T06:13:56;6.90;;;4.30;;
6089;SDS011;3073;42.660;23.316;2023-04-24T06:16:22;4.10;;;3.40;;
6089;SDS011;3073;42.660;23.316;2023-04-24T06:18:49;5.63;;;4.60;;
6089;SDS011;3073;42.660;23.316;2023-04-24T06:21:16;9.73;;;4.23;;
6089;SDS011;3073;42.660;23.316;2023-04-24T06:23:43;4.80;;;4.00;;
6089;SDS011;3073;42.660;23.316;2023-04-24T06:26:11;6.13;;;4.40;;
6089;SDS011;3073;42.660;23.316;2023-04-24T06:28:38;8.20;;;4.60;;
6089;SDS011;3073;42.660;23.316;2023-04-24T06:31:06;6.27;;;4.20;;
6089;SDS011;3073;42.660;23.316;2023-04-24T06:33:33;9.63;;;5.83;;
6089;SDS011;3073;42.660;23.316;2023-04-24T06:36:00;10.77;;;6.53;;
6089;SDS011;3073;42.660;23.316;2023-04-24T06:38:29;8.13;;;5.20;;
6089;SDS011;3073;42.660;23.316;2023-04-24T06:40:56;7.40;;;4.60;;
6089;SDS011;3073;42.660;23.316;2023-04-24T06:43:22;11.30;;;4.40;;
6089;SDS011;3073;42.660;23.316;2023-04-24T06:45:49;13.37;;;5.03;;
6089;SDS011;3073;42.660;23.316;2023-04-24T06:48:17;5.97;;;4.80;;
6089;SDS011;3073;42.660;23.316;2023-04-24T06:50:44;7.20;;;5.23;;
6089;SDS011;3073;42.660;23.316;2023-04-24T06:53:12;6.20;;;5.10;;
6089;SDS011;3073;42.660;23.316;2023-04-24T06:55:39;10.20;;;5.27;;
6089;SDS011;3073;42.660;23.316;2023-04-24T06:58:08;7.37;;;5.30;;
6089;SDS011;3073;42.660;23.316;2023-04-24T07:00:35;10.03;;;5.60;;
6089;SDS011;3073;42.660;23.316;2023-04-24T07:03:02;11.53;;;5.60;;
6089;SDS011;3073;42.660;23.316;2023-04-24T07:05:31;13.30;;;5.30;;
6089;SDS011;3073;42.660;23.316;2023-04-24T07:08:00;7.80;;;5.10;;
6089;SDS011;3073;42.660;23.316;2023-04-24T07:10:27;9.80;;;6.13;;
6089;SDS011;3073;42.660;23.316;2023-04-24T07:12:54;8.20;;;6.20;;
6089;SDS011;3073;42.660;23.316;2023-04-24T07:15:21;9.73;;;6.50;;
6089;SDS011;3073;42.660;23.316;2023-04-24T07:17:48;9.77;;;5.60;;
6089;SDS011;3073;42.660;23.316;2023-04-24T07:20:16;6.07;;;4.90;;
6089;SDS011;3073;42.660;23.316;2023-04-24T07:22:44;7.37;;;5.17;;
6089;SDS011;3073;42.660;23.316;2023-04-24T07:25:12;7.70;;;4.73;;
6089;SDS011;3073;42.660;23.316;2023-04-24T07:27:39;6.53;;;4.60;;
6089;SDS011;3073;42.660;23.316;2023-04-24T07:30:06;10.63;;;4.90;;
6089;SDS011;3073;42.660;23.316;2023-04-24T07:32:33;9.03;;;6.00;;
6089;SDS011;3073;42.660;23.316;2023-04-24T07:35:00;9.40;;;5.10;;
6089;SDS011;3073;42.660;23.316;2023-04-24T07:37:27;7.53;;;5.13;;
6089;SDS011;3073;42.660;23.316;2023-04-24T07:39:58;7.03;;;4.87;;
6089;SDS011;3073;42.660;23.316;2023-04-24T07:42:25;10.10;;;5.57;;
6089;SDS011;3073;42.660;23.316;2023-04-24T07:44:51;6.50;;;4.93;;
6089;SDS011;3073;42.660;23.316;2023-04-24T07:47:19;5.67;;;3.90;;
6089;SDS011;3073;42.660;23.316;2023-04-24T07:49:46;8.67;;;4.63;;
6089;SDS011;3073;42.660;23.316;2023-04-24T07:52:12;7.93;;;4.30;;
6089;SDS011;3073;42.660;23.316;2023-04-24T07:54:39;7.50;;;5.00;;
6089;SDS011;3073;42.660;23.316;2023-04-24T07:57:07;5.80;;;4.33;;
6089;SDS011;3073;42.660;23.316;2023-04-24T07:59:34;8.93;;;4.20;;
6089;SDS011;3073;42.660;23.316;2023-04-24T08:02:01;5.70;;;3.50;;
6089;SDS011;3073;42.660;23.316;2023-04-24T08:04:28;7.97;;;4.20;;
6089;SDS011;3073;42.660;23.316;2023-04-24T08:06:55;6.17;;;4.40;;
6089;SDS011;3073;42.660;23.316;2023-04-24T08:09:21;6.40;;;4.73;;
6089;SDS011;3073;42.660;23.316;2023-04-24T08:11:48;9.17;;;4.67;;
6089;SDS011;3073;42.660;23.316;2023-04-24T08:14:17;6.37;;;3.80;;
6089;SDS011;3073;42.660;23.316;2023-04-24T08:16:44;6.13;;;4.73;;
6089;SDS011;3073;42.660;23.316;2023-04-24T08:19:10;5.70;;;3.80;;
6089;SDS011;3073;42.660;23.316;2023-04-24T08:21:37;5.80;;;4.63;;
6089;SDS011;3073;42.660;23.316;2023-04-24T08:24:04;11.13;;;4.30;;
6089;SDS011;3073;42.660;23.316;2023-04-24T08:26:33;7.20;;;4.87;;
6089;SDS011;3073;42.660;23.316;2023-04-24T08:29:00;6.90;;;4.73;;
6089;SDS011;3073;42.660;23.316;2023-04-24T08:31:29;7.40;;;4.80;;
6089;SDS011;3073;42.660;23.316;2023-04-24T08:33:55;6.40;;;5.23;;
6089;SDS011;3073;42.660;23.316;2023-04-24T08:36:22;7.80;;;5.17;;
6089;SDS011;3073;42.660;23.316;2023-04-24T08:38:49;6.80;;;5.07;;
6089;SDS011;3073;42.660;23.316;2023-04-24T08:41:16;7.60;;;4.50;;
6089;SDS011;3073;42.660;23.316;2023-04-24T08:43:45;9.97;;;5.40;;
6089;SDS011;3073;42.660;23.316;2023-04-24T08:46:13;7.37;;;4.83;;
6089;SDS011;3073;42.660;23.316;2023-04-24T08:48:43;6.43;;;4.77;;
6089;SDS011;3073;42.660;23.316;2023-04-24T08:51:10;5.90;;;4.17;;
6089;SDS011;3073;42.660;23.316;2023-04-24T08:53:37;6.00;;;4.57;;
6089;SDS011;3073;42.660;23.316;2023-04-24T08:56:04;5.73;;;4.70;;
6089;SDS011;3073;42.660;23.316;2023-04-24T08:58:31;7.10;;;4.87;;
6089;SDS011;3073;42.660;23.316;2023-04-24T09:00:59;4.40;;;3.90;;
6089;SDS011;3073;42.660;23.316;2023-04-24T09:03:28;10.23;;;5.53;;
6089;SDS011;3073;42.660;23.316;2023-04-24T09:05:58;7.00;;;4.40;;
6089;SDS011;3073;42.660;23.316;2023-04-24T09:08:27;7.05;;;5.50;;
6089;SDS011;3073;42.660;23.316;2023-04-24T09:10:54;6.28;;;4.55;;
6089;SDS011;3073;42.660;23.316;2023-04-24T09:13:23;4.40;;;4.00;;
6089;SDS011;3073;42.660;23.316;2023-04-24T09:15:50;7.20;;;5.03;;
6089;SDS011;3073;42.660;23.316;2023-04-24T09:18:18;4.83;;;4.20;;
6089;SDS011;3073;42.660;23.316;2023-04-24T09:20:56;6.90;;;4.20;;
6089;SDS011;3073;42.660;23.316;2023-04-24T09:23:25;10.20;;;5.50;;
6089;SDS011;3073;42.660;23.316;2023-04-24T09:25:54;7.03;;;5.20;;
6089;SDS011;3073;42.660;23.316;2023-04-24T09:28:25;5.07;;;3.90;;
6089;SDS011;3073;42.660;23.316;2023-04-24T09:31:05;6.00;;;4.47;;
6089;SDS011;3073;42.660;23.316;2023-04-24T09:33:34;7.80;;;4.90;;
6089;SDS011;3073;42.660;23.316;2023-04-24T09:36:03;5.73;;;4.00;;
6089;SDS011;3073;42.660;23.316;2023-04-24T09:38:31;5.90;;;4.20;;
6089;SDS011;3073;42.660;23.316;2023-04-24T09:41:00;17.80;;;4.13;;
6089;SDS011;3073;42.660;23.316;2023-04-24T09:43:29;6.43;;;4.40;;
6089;SDS011;3073;42.660;23.316;2023-04-24T09:45:56;4.30;;;3.37;;
6089;SDS011;3073;42.660;23.316;2023-04-24T09:48:30;6.60;;;4.10;;
6089;SDS011;3073;42.660;23.316;2023-04-24T09:50:58;6.93;;;3.90;;
6089;SDS011;3073;42.660;23.316;2023-04-24T09:53:27;5.03;;;4.00;;
6089;SDS011;3073;42.660;23.316;2023-04-24T09:55:54;6.60;;;4.70;;
6089;SDS011;3073;42.660;23.316;2023-04-24T09:58:24;8.00;;;4.10;;
6089;SDS011;3073;42.660;23.316;2023-04-24T10:00:53;5.03;;;4.20;;
6089;SDS011;3073;42.660;23.316;2023-04-24T10:03:20;6.53;;;3.30;;
6089;SDS011;3073;42.660;23.316;2023-04-24T10:05:47;4.90;;;3.50;;
6089;SDS011;3073;42.660;23.316;2023-04-24T10:08:14;3.33;;;3.03;;
6089;SDS011;3073;42.660;23.316;2023-04-24T10:10:42;10.18;;;3.75;;
6089;SDS011;3073;42.660;23.316;2023-04-24T10:13:11;4.07;;;3.35;;
6089;SDS011;3073;42.660;23.316;2023-04-24T10:15:40;6.50;;;3.50;;
6089;SDS011;3073;42.660;23.316;2023-04-24T10:18:08;5.88;;;3.85;;
6089;SDS011;3073;42.660;23.316;2023-04-24T10:20:36;6.38;;;4.05;;
6089;SDS011;3073;42.660;23.316;2023-04-24T10:23:04;5.00;;;3.28;;
6089;SDS011;3073;42.660;23.316;2023-04-24T10:25:31;3.78;;;2.92;;
6089;SDS011;3073;42.660;23.316;2023-04-24T10:28:01;6.00;;;3.85;;
6089;SDS011;3073;42.660;23.316;2023-04-24T10:30:29;5.65;;;3.42;;
6089;SDS011;3073;42.660;23.316;2023-04-24T10:33:00;7.25;;;3.75;;
6089;SDS011;3073;42.660;23.316;2023-04-24T10:35:27;6.53;;;4.38;;
6089;SDS011;3073;42.660;23.316;2023-04-24T10:37:58;3.20;;;2.70;;
6089;SDS011;3073;42.660;23.316;2023-04-24T10:40:30;3.70;;;3.10;;
6089;SDS011;3073;42.660;23.316;2023-04-24T10:42:58;3.60;;;2.95;;
6089;SDS011;3073;42.660;23.316;2023-04-24T10:45:26;3.75;;;2.90;;
6089;SDS011;3073;42.660;23.316;2023-04-24T10:47:57;3.17;;;2.83;;
6089;SDS011;3073;42.660;23.316;2023-04-24T10:50:26;5.43;;;2.72;;
6089;SDS011;3073;42.660;23.316;2023-04-24T10:52:55;3.30;;;2.97;;
6089;SDS011;3073;42.660;23.316;2023-04-24T10:55:42;5.22;;;3.17;;
6089;SDS011;3073;42.660;23.316;2023-04-24T10:58:10;3.10;;;2.80;;
6089;SDS011;3073;42.660;23.316;2023-04-24T11:00:39;4.50;;;3.28;;
6089;SDS011;3073;42.660;23.316;2023-04-24T11:03:06;4.32;;;3.08;;
6089;SDS011;3073;42.660;23.316;2023-04-24T11:05:51;3.22;;;2.45;;
6089;SDS011;3073;42.660;23.316;2023-04-24T11:08:24;2.97;;;2.67;;
6089;SDS011;3073;42.660;23.316;2023-04-24T11:10:56;7.22;;;3.58;;
6089;SDS011;3073;42.660;23.316;2023-04-24T11:13:25;4.15;;;3.08;;
6089;SDS011;3073;42.660;23.316;2023-04-24T11:18:41;5.27;;;3.53;;
6089;SDS011;3073;42.660;23.316;2023-04-24T11:21:11;5.20;;;3.73;;
6089;SDS011;3073;42.660;23.316;2023-04-24T11:23:39;2.97;;;2.53;;
6089;SDS011;3073;42.660;23.316;2023-04-24T11:26:10;3.10;;;2.80;;
6089;SDS011;3073;42.660;23.316;2023-04-24T11:28:44;5.13;;;3.90;;
6089;SDS011;3073;42.660;23.316;2023-04-24T11:34:09;2.73;;;2.50;;
6089;SDS011;3073;42.660;23.316;2023-04-24T11:36:37;7.10;;;2.50;;
6089;SDS011;3073;42.660;23.316;2023-04-24T11:39:04;3.37;;;2.63;;
6089;SDS011;3073;42.660;23.316;2023-04-24T11:41:31;3.70;;;2.67;;
6089;SDS011;3073;42.660;23.316;2023-04-24T11:43:59;3.70;;;2.93;;
6089;SDS011;3073;42.660;23.316;2023-04-24T11:46:27;4.00;;;2.30;;
6089;SDS011;3073;42.660;23.316;2023-04-24T11:48:57;3.23;;;2.80;;
6089;SDS011;3073;42.660;23.316;2023-04-24T11:51:24;5.37;;;3.30;;
6089;SDS011;3073;42.660;23.316;2023-04-24T11:53:52;3.60;;;3.30;;
6089;SDS011;3073;42.660;23.316;2023-04-24T11:56:21;5.40;;;3.80;;
6089;SDS011;3073;42.660;23.316;2023-04-24T11:58:48;6.20;;;4.30;;
6089;SDS011;3073;42.660;23.316;2023-04-24T12:01:15;4.63;;;3.30;;
6089;SDS011;3073;42.660;23.316;2023-04-24T12:03:44;6.40;;;4.83;;
6089;SDS011;3073;42.660;23.316;2023-04-24T12:06:15;6.00;;;4.00;;
6089;SDS011;3073;42.660;23.316;2023-04-24T12:08:45;4.30;;;3.33;;
6089;SDS011;3073;42.660;23.316;2023-04-24T12:11:14;7.60;;;3.50;;
6089;SDS011;3073;42.660;23.316;2023-04-24T12:13:43;7.13;;;4.20;;
6089;SDS011;3073;42.660;23.316;2023-04-24T12:16:10;5.43;;;3.10;;
6089;SDS011;3073;42.660;23.316;2023-04-24T12:18:43;2.80;;;2.50;;
6089;SDS011;3073;42.660;23.316;2023-04-24T12:21:15;4.07;;;2.93;;
6089;SDS011;3073;42.660;23.316;2023-04-24T12:23:43;6.73;;;3.13;;
6089;SDS011;3073;42.660;23.316;2023-04-24T12:26:11;3.47;;;2.90;;
6089;SDS011;3073;42.660;23.316;2023-04-24T12:31:20;3.73;;;3.00;;
6089;SDS011;3073;42.660;23.316;2023-04-24T12:33:47;3.50;;;2.60;;
6089;SDS011;3073;42.660;23.316;2023-04-24T12:36:15;3.00;;;2.40;;
6089;SDS011;3073;42.660;23.316;2023-04-24T12:38:43;5.57;;;3.67;;
6089;SDS011;3073;42.660;23.316;2023-04-24T12:41:12;2.80;;;2.33;;
6089;SDS011;3073;42.660;23.316;2023-04-24T12:43:50;4.20;;;2.90;;
6089;SDS011;3073;42.660;23.316;2023-04-24T12:46:17;3.80;;;2.97;;
6089;SDS011;3073;42.660;23.316;2023-04-24T12:48:46;4.10;;;3.20;;
6089;SDS011;3073;42.660;23.316;2023-04-24T12:51:13;4.30;;;2.60;;
6089;SDS011;3073;42.660;23.316;2023-04-24T12:53:41;3.47;;;2.80;;
6089;SDS011;3073;42.660;23.316;2023-04-24T12:56:08;3.23;;;2.93;;
6089;SDS011;3073;42.660;23.316;2023-04-24T12:58:35;3.20;;;2.67;;
6089;SDS011;3073;42.660;23.316;2023-04-24T13:01:05;4.00;;;3.30;;
6089;SDS011;3073;42.660;23.316;2023-04-24T13:03:36;3.30;;;2.80;;
6089;SDS011;3073;42.660;23.316;2023-04-24T13:06:06;3.60;;;3.10;;
6089;SDS011;3073;42.660;23.316;2023-04-24T13:08:33;4.20;;;2.63;;
6089;SDS011;3073;42.660;23.316;2023-04-24T13:11:01;4.43;;;2.80;;
6089;SDS011;3073;42.660;23.316;2023-04-24T13:13:28;3.17;;;2.63;;
6089;SDS011;3073;42.660;23.316;2023-04-24T13:15:55;6.43;;;3.07;;
6089;SDS011;3073;42.660;23.316;2023-04-24T13:18:22;5.37;;;3.50;;
6089;SDS011;3073;42.660;23.316;2023-04-24T13:20:50;5.33;;;3.60;;
6089;SDS011;3073;42.660;23.316;2023-04-24T13:23:17;3.50;;;2.77;;
6089;SDS011;3073;42.660;23.316;2023-04-24T13:25:45;3.00;;;2.70;;
6089;SDS011;3073;42.660;23.316;2023-04-24T13:28:13;4.63;;;3.00;;
6089;SDS011;3073;42.660;23.316;2023-04-24T13:30:40;3.78;;;2.70;;
6089;SDS011;3073;42.660;23.316;2023-04-24T13:33:09;3.28;;;2.50;;
6089;SDS011;3073;42.660;23.316;2023-04-24T13:35:36;4.00;;;3.17;;
6089;SDS011;3073;42.660;23.316;2023-04-24T13:38:03;5.65;;;3.35;;
6089;SDS011;3073;42.660;23.316;2023-04-24T13:40:31;6.40;;;2.80;;
6089;SDS011;3073;42.660;23.316;2023-04-24T13:43:02;3.95;;;2.80;;
6089;SDS011;3073;42.660;23.316;2023-04-24T13:45:33;3.20;;;2.90;;
6089;SDS011;3073;42.660;23.316;2023-04-24T13:48:02;3.58;;;3.10;;
6089;SDS011;3073;42.660;23.316;2023-04-24T13:50:43;4.85;;;2.60;;
6089;SDS011;3073;42.660;23.316;2023-04-24T13:53:13;3.45;;;3.15;;
6089;SDS011;3073;42.660;23.316;2023-04-24T13:55:43;3.83;;;3.50;;
6089;SDS011;3073;42.660;23.316;2023-04-24T13:58:10;3.67;;;3.35;;
6089;SDS011;3073;42.660;23.316;2023-04-24T14:00:39;4.43;;;3.45;;
6089;SDS011;3073;42.660;23.316;2023-04-24T14:03:07;3.20;;;2.55;;
6089;SDS011;3073;42.660;23.316;2023-04-24T14:05:34;3.08;;;2.63;;
6089;SDS011;3073;42.660;23.316;2023-04-24T14:08:00;4.50;;;2.78;;
6089;SDS011;3073;42.660;23.316;2023-04-24T14:10:30;4.38;;;3.38;;
6089;SDS011;3073;42.660;23.316;2023-04-24T14:12:57;4.85;;;2.72;;
6089;SDS011;3073;42.660;23.316;2023-04-24T14:15:26;4.03;;;2.97;;
6089;SDS011;3073;42.660;23.316;2023-04-24T14:17:56;5.65;;;3.35;;
6089;SDS011;3073;42.660;23.316;2023-04-24T14:20:23;3.08;;;2.60;;
6089;SDS011;3073;42.660;23.316;2023-04-24T14:22:50;4.47;;;3.33;;
6089;SDS011;3073;42.660;23.316;2023-04-24T14:25:18;3.05;;;2.75;;
6089;SDS011;3073;42.660;23.316;2023-04-24T14:27:45;4.03;;;3.15;;
6089;SDS011;3073;42.660;23.316;2023-04-24T14:30:15;4.00;;;3.17;;
6089;SDS011;3073;42.660;23.316;2023-04-24T14:32:42;3.85;;;2.88;;
6089;SDS011;3073;42.660;23.316;2023-04-24T14:35:10;4.97;;;2.90;;
6089;SDS011;3073;42.660;23.316;2023-04-24T14:37:37;6.10;;;3.17;;
6089;SDS011;3073;42.660;23.316;2023-04-24T14:40:06;3.77;;;2.70;;
6089;SDS011;3073;42.660;23.316;2023-04-24T14:42:34;3.73;;;3.40;;
6089;SDS011;3073;42.660;23.316;2023-04-24T14:45:01;4.07;;;3.00;;
6089;SDS011;3073;42.660;23.316;2023-04-24T14:47:28;6.50;;;2.90;;
6089;SDS011;3073;42.660;23.316;2023-04-24T14:49:55;5.37;;;3.10;;
6089;SDS011;3073;42.660;23.316;2023-04-24T14:52:24;3.20;;;2.60;;
6089;SDS011;3073;42.660;23.316;2023-04-24T14:54:51;3.70;;;2.77;;
6089;SDS011;3073;42.660;23.316;2023-04-24T14:57:18;3.10;;;2.30;;
6089;SDS011;3073;42.660;23.316;2023-04-24T14:59:56;3.93;;;2.67;;
6089;SDS011;3073;42.660;23.316;2023-04-24T15:02:22;5.00;;;3.30;;
6089;SDS011;3073;42.660;23.316;2023-04-24T15:04:49;4.53;;;3.70;;
6089;SDS011;3073;42.660;23.316;2023-04-24T15:07:16;5.27;;;3.03;;
6089;SDS011;3073;42.660;23.316;2023-04-24T15:09:44;5.47;;;3.57;;
6089;SDS011;3073;42.660;23.316;2023-04-24T15:12:12;4.73;;;3.40;;
6089;SDS011;3073;42.660;23.316;2023-04-24T15:14:51;5.43;;;3.73;;